Airfield :
LOGIN :

Register | Disclaimer

   EN    FR    IT 

 










Legend :    VFR   Marginal VFR   IFR   Intensive IFR   Very Intensive IFR
Visi :
Ceiling :
>= 8 km
>= 3000ft
5 to 8 km
1000 to 3000 ft
1500m to 5 km
500 to 1000 ft
800 to 1500m
200 to 500 ft
< 800m
< 200 ft
Symbols :   Thunderstorms  Fog  Heavy snow  Heavy precipitations  Wind > 20 kt
SIGMETs :     Misc.  Thunderstorms  Icing  Turbulence  Mountain Waves  Volcanic Ashes






- Airport Elevation : 194 ft
- IATA code : IEG


EPZG - Zielona Gora Babimost

CURRENT METAR :
  • 161200Z VRB02KT 9999 -SHRA BKN055CB 06/03 Q1011

EXPIRED METARs :
  • 161130Z 12003KT 080V160 CAVOK 07/02 Q1012
  • 161100Z 13003KT 090V160 CAVOK 07/03 Q1012
  • 161030Z 15004KT 9999 -RA NSC 06/03 Q1012
  • 161000Z 13004KT 110V170 CAVOK 06/03 Q1012
  • 160930Z VRB02KT CAVOK 06/03 Q1013

TAF TAF EPZG
Valid from the 16 at 12:00 until the 16 at 21:00 UTC


161130Z 1612/1621 18004KT CAVOK
PROB30
TEMPO 1612/1615 SHRA BKN030CB



MET'MAP, your aeronautical weather chart ! - Copyright ORBIFLY December 2007 - Disclaimer

ORBIFLY MET'MAP TEAM :

Programming & Development : Alexandra Zaïnal
Concept & original design : Baudouin d'Aumeries
Assistance for programming : Marc-Olivier Méhu
Technical & hardware support : Manuel Goepfert

Contact : metmap@orbifly.com




SOURCES & CREDITS :

   NOAA